Weather Models
Both GFS & NAM
00z 06z 12z 18z
24hr Precip
00z 06z 12z 18z
36hr Simulated radar
00z 06z 12z 18z
SKEWT Soundings
00z 12z
Current Conditions (Updated 12:40pm on 7/22/19)
Temperature
103°
2.65
103°  
81°  
0
10
20
30
40
50
60
70
80
90
100
Dew Point
71°
73°  
68°  
-20
-10
0
10
20
30
40
50
60
70
80
Heat Index
113°
115°  
84°  
30
40
50
60
70
80
90
100
110
120
130
Heat Index
Humidity
36%
66% 
36% 
0
10
20
30
40
50
60
70
80
90
100
Barometer
29.81
   Steady
29.90  
29.81  
28.00
28.30
28.60
28.90
29.20
29.50
29.80
30.10
30.40
30.70
31.00
Temperature
Dew Point
Humidity
Pressure
Wind
9mph
 SW
Daily Rain
.00
.05
.10
.15
.20
.25
.30
.35
.40
.45
.50
Rain Today
 0.00" 
Month Rain
0.00
0.50
1.00
1.50
2.00
2.50
3.00
3.50
4.00
4.50
5.00
Month Rain
 4.32" 
Year Rain
0.00
5.00
10.00
15.00
20.00
25.00
30.00
35.00
40.00
45.00
50.00
Year Rain
 32.61" 
Sun & Moon Data
Sunrise 5:51am
Sunset 8:25pm
Moonrise 11:43pm
Moonset 11:04am
Moon % 81%
Other Rain Data
Past Hour 0.00 Past 24 Hours 0.00
Past 3 Hours 0.00 Past 7 Days 1.03
Past 6 Hours 0.00
Cloud Height
8027


Current Front Map
Current Satellite map
7 Day Forecast
NWS Forecast for Philadelphia PA
National Weather Service Forecast for: Philadelphia PA
Issued by: National Weather Service Philadelphia, PA
Updated: 9:40 am EDT Jul 22, 2019

Philadelphia
 
This
Afternoon
This Afternoon: Showers and thunderstorms likely, mainly after 3pm. Some storms could be severe, with damaging winds and heavy rain.  Partly sunny, with a high near 91. Southwest wind 7 to 9 mph.  Chance of precipitation is 60%. New rainfall amounts between a half and three quarters of an inch possible.
Severe
T-Storms
Tonight

Tonight: Showers and possibly a thunderstorm. Some storms could be severe, with damaging winds and heavy rain.  Low around 70. West wind around 6 mph becoming north after midnight.  Chance of precipitation is 80%. New rainfall amounts between three quarters and one inch possible.
Severe
T-Storms
Tuesday

Tuesday: Showers, mainly before 2pm. The rain could be heavy at times.  High near 80. Northwest wind 5 to 11 mph.  Chance of precipitation is 80%. New precipitation amounts between a quarter and half of an inch possible.
Heavy Rain
Tuesday
Night
Tuesday Night: A chance of showers, mainly before 8pm.  Mostly cloudy, with a low around 66. North wind 3 to 5 mph.  Chance of precipitation is 30%. New precipitation amounts of less than a tenth of an inch possible.
Chance
Showers
Wednesday

Wednesday: Mostly sunny, with a high near 84. North wind around 6 mph.
Mostly Sunny
Wednesday
Night
Wednesday Night: Partly cloudy, with a low around 65.
Partly Cloudy
Thursday

Thursday: Sunny, with a high near 85.
Sunny
Thursday
Night
Thursday Night: Mostly clear, with a low around 67.
Mostly Clear
Friday

Friday: Sunny, with a high near 87.
Sunny
Hi 91 °F Lo 70 °F Hi 80 °F Lo 66 °F Hi 84 °F Lo 65 °F Hi 85 °F Lo 67 °F Hi 87 °F

Hazardous Weather Outlook
Flash Flood Watch
Heat Advisory
 

This Afternoon
 
Showers and thunderstorms likely, mainly after 3pm. Some storms could be severe, with damaging winds and heavy rain. Partly sunny, with a high near 91. Southwest wind 7 to 9 mph. Chance of precipitation is 60%. New rainfall amounts between a half and three quarters of an inch possible.
Tonight
 
Showers and possibly a thunderstorm. Some storms could be severe, with damaging winds and heavy rain. Low around 70. West wind around 6 mph becoming north after midnight. Chance of precipitation is 80%. New rainfall amounts between three quarters and one inch possible.
Tuesday
 
Showers, mainly before 2pm. The rain could be heavy at times. High near 80. Northwest wind 5 to 11 mph. Chance of precipitation is 80%. New precipitation amounts between a quarter and half of an inch possible.
Tuesday Night
 
A chance of showers, mainly before 8pm. Mostly cloudy, with a low around 66. North wind 3 to 5 mph. Chance of precipitation is 30%. New precipitation amounts of less than a tenth of an inch possible.
Wednesday
 
Mostly sunny, with a high near 84. North wind around 6 mph.
Wednesday Night
 
Partly cloudy, with a low around 65.
Thursday
 
Sunny, with a high near 85.
Thursday Night
 
Mostly clear, with a low around 67.
Friday
 
Sunny, with a high near 87.
Friday Night
 
Mostly clear, with a low around 68.
Saturday
 
Sunny, with a high near 88.
Saturday Night
 
Mostly clear, with a low around 69.
Sunday
 
Sunny, with a high near 89.

 

Forecast from NOAA-NWS for Philadelphia PA.

Area Weather Current Conditions
Nearby METAR Reports

KPHL - Philadelphia, Pennsylvania
Updated: Mon, 22-Jul-2019 11:54am EDT
Partly Cloudy
Partly Cloudy
 Wind from SSW
Wind: SSW 8 mph , 13 km/h
Temperature: 90°F , 32°C
Heat Index: 97°F , 36°C
Dew Point: 72°F , 22°C
Humidity: 55%
Barometer: 29.81 inHg , 1009.5 hPa
Clouds: Partly Cloudy
Visibility: 10 miles , 16 km
Cloud details: Partly Cloudy 3600 ft
Partly Cloudy 18000 ft
2019/07/22 15:54 KPHL 221554Z 20007KT 10SM SCT036 SCT180 32/22 A2981 RMK AO2 SLP093 T03170217
KMPO - Mt. Pocono, Pennsylvania
Updated: Mon, 22-Jul-2019 11:53am EDT
Mostly Cloudy
Mostly Cloudy
 Wind from SE
Wind: SE 12 mph , 19 km/h
Temperature: 77°F , 25°C
Dew Point: 70°F , 21°C
Humidity: 79%
Barometer: 29.88 inHg , 1011.9 hPa
Clouds: Mostly Cloudy
Visibility: 10 miles , 16 km
Cloud details: Partly Cloudy 2200 ft
Mostly Cloudy 2800 ft
2019/07/22 15:53 KMPO 221553Z AUTO 14010KT 10SM SCT022 BKN028 25/21 A2988 RMK AO2 SLP106 T02500211
 
KACY - Atlantic City, New Jersey
Updated: Mon, 22-Jul-2019 11:54am EDT
Clear
Clear
 Wind from SW
Wind: SW 12 mph , 19 km/h, Gust: 18 mph , 30 km/h
Temperature: 93°F , 34°C
Heat Index: 100°F , 38°C
Dew Point: 72°F , 22°C
Humidity: 49%
Barometer: 29.82 inHg , 1009.8 hPa
Clouds: Clear
Visibility: 10 miles , 16 km
2019/07/22 15:54 KACY 221554Z 22010G16KT 10SM CLR 34/22 A2982 RMK AO2 SLP096 T03390217
KMIV - Millville, New Jersey
Updated: Mon, 22-Jul-2019 11:54am EDT
Clear
Clear
 Wind from varies
Wind: varies 6 mph , 9 km/h
Temperature: 90°F , 32°C
Heat Index: 99°F , 37°C
Dew Point: 73°F , 23°C
Humidity: 59%
Barometer: 29.82 inHg , 1009.8 hPa
Clouds: Clear
Visibility: 10 miles , 16 km
2019/07/22 15:54 KMIV 221554Z AUTO VRB05KT 10SM CLR 32/23 A2982 RMK AO2 SLP097 T03170233 $
 
KWWD - Wildwood, New Jersey
Updated: Mon, 22-Jul-2019 11:56am EDT
Clear
Clear
 Wind from SW
Wind: SW 12 mph , 19 km/h
Temperature: 91°F , 33°C
Heat Index: 104°F , 40°C
Dew Point: 77°F , 25°C
Humidity: 63%
Barometer: 29.83 inHg , 1010.2 hPa
Clouds: Clear
Visibility: 10 miles , 16 km
2019/07/22 15:56 KWWD 221556Z AUTO 23010KT 10SM CLR 33/25 A2983 RMK AO2 SLP103 T03330250
KDOV - Dover Afb, Delaware
Updated: Mon, 22-Jul-2019 11:56am EDT
Clear
Clear
 Wind from SSW
Wind: SSW 12 mph , 19 km/h
Temperature: 93°F , 34°C
Heat Index: 103°F , 39°C
Dew Point: 73°F , 23°C
Humidity: 53%
Barometer: 29.81 inHg , 1009.5 hPa
Clouds: Clear
Visibility: 10 miles , 16 km
2019/07/22 15:56 KDOV 221556Z AUTO 20010KT 10SM CLR 34/23 A2981 RMK AO2 SLP098 T03380225 $
Severe Weather Map